Aviation Digital Data Service (ADDS)

Output produced by METARs form (2133 UTC 24 March 2019)
found at http://www.aviationweather.gov/metar/data/
 
VYMD 241730Z CALM 6000 FEW020 21/16 Q1008
TAF VYMD 241700Z 2418/2518 18003KT 6000 FEW020 
     TEMPO 2418/2424 34005KT 5000 HZ SCT020
       
VYYY 242100Z 24003KT 6000 NSC 24/23 Q1007
TAF VYYY 241700Z 2418/2518 18006KT 8000 FEW120 SCT280 
     TEMPO 2418/2424 25006KT 
     BECMG 2500/2502 4000 BR 
     TEMPO 2508/2514 18008G18KT